Time;durP1;ratioP1;P1;durP2;ratioP2;P2;SDS_P1;SDS_P2;PMS_P1;PMS_P2;Temp;Humidity;BMP_temperature;BMP_pressure;BME280_temperature;BME280_humidity;BME280_pressure;Samples;Min_cycle;Max_cycle;Signal;HPM_P1;HPM_P2
2021/10/07 00:00:07;;;;;;;1.80;0.50;;;;;;;;;;5012853;28;20083;-46
2021/10/07 00:02:33;;;;;;;1.05;0.77;;;;;;;;;;5013656;28;20079;-46
2021/10/07 00:04:59;;;;;;;0.75;0.57;;;;;;;;;;5012843;28;20030;-46
2021/10/07 00:07:25;;;;;;;1.30;1.00;;;;;;;;;;5013537;28;20463;-46
2021/10/07 00:09:51;;;;;;;1.13;0.60;;;;;;;;;;5012524;28;20029;-46
2021/10/07 00:12:17;;;;;;;1.08;0.57;;;;;;;;;;5013129;28;20029;-46
2021/10/07 00:14:44;;;;;;;3.05;0.63;;;;;;;;;;5012583;28;20038;-52
2021/10/07 00:17:10;;;;;;;0.77;0.55;;;;;;;;;;5012937;28;20033;-46
2021/10/07 00:19:36;;;;;;;2.53;0.93;;;;;;;;;;5004516;28;20022;-46
2021/10/07 00:22:02;;;;;;;1.13;0.50;;;;;;;;;;5010503;28;20030;-46
2021/10/07 00:24:28;;;;;;;1.70;0.52;;;;;;;;;;5013051;28;20033;-46
2021/10/07 00:26:54;;;;;;;1.65;0.60;;;;;;;;;;5012518;28;20030;-46
2021/10/07 00:32:03;;;;;;;1.10;0.73;;;;;;;;;;5012612;28;20061;-46
2021/10/07 00:34:50;;;;;;;1.23;0.40;;;;;;;;;;5012678;28;20030;-46
2021/10/07 00:39:55;;;;;;;1.08;0.43;;;;;;;;;;5012393;28;20069;-46
2021/10/07 00:42:21;;;;;;;2.10;0.50;;;;;;;;;;5011858;28;20033;-46
2021/10/07 00:44:47;;;;;;;0.70;0.50;;;;;;;;;;5012051;28;20113;-46
2021/10/07 00:47:14;;;;;;;0.95;0.70;;;;;;;;;;5013189;28;20026;-46
2021/10/07 00:49:40;;;;;;;0.43;0.40;;;;;;;;;;5012674;28;20368;-45
2021/10/07 00:52:07;;;;;;;0.40;0.40;;;;;;;;;;5011846;28;20521;-46
2021/10/07 00:54:33;;;;;;;1.10;0.63;;;;;;;;;;5012953;28;20497;-46
2021/10/07 00:57:01;;;;;;;2.03;0.63;;;;;;;;;;5012089;28;20389;-46
2021/10/07 00:59:27;;;;;;;0.57;0.40;;;;;;;;;;5011743;28;20057;-46
2021/10/07 01:01:53;;;;;;;1.15;0.63;;;;;;;;;;5011868;28;20080;-46
2021/10/07 01:04:19;;;;;;;1.15;0.60;;;;;;;;;;5012620;28;20025;-46
2021/10/07 01:06:46;;;;;;;1.15;0.77;;;;;;;;;;5011619;28;20388;-52
2021/10/07 01:09:12;;;;;;;1.38;0.52;;;;;;;;;;5012339;28;20029;-48
2021/10/07 01:11:38;;;;;;;0.70;0.32;;;;;;;;;;5012543;28;20026;-45
2021/10/07 01:14:04;;;;;;;1.40;0.50;;;;;;;;;;5011332;28;20522;-46
2021/10/07 01:16:30;;;;;;;1.17;0.60;;;;;;;;;;5012140;28;20022;-46
2021/10/07 01:18:56;;;;;;;1.63;0.88;;;;;;;;;;5011748;28;20025;-46
2021/10/07 01:21:22;;;;;;;1.40;0.60;;;;;;;;;;5009861;28;20022;-46
2021/10/07 01:23:50;;;;;;;0.90;0.52;;;;;;;;;;5010120;28;20076;-46
2021/10/07 01:26:17;;;;;;;0.82;0.68;;;;;;;;;;5011182;28;20778;-47
2021/10/07 01:28:46;;;;;;;0.52;0.43;;;;;;;;;;5011155;28;20053;-52
2021/10/07 01:31:13;;;;;;;2.22;0.52;;;;;;;;;;5008785;28;20014;-46
2021/10/07 01:33:39;;;;;;;1.63;0.90;;;;;;;;;;5010849;28;20020;-46
2021/10/07 01:36:06;;;;;;;2.45;1.05;;;;;;;;;;5010388;28;20263;-47
2021/10/07 01:38:32;;;;;;;0.88;0.50;;;;;;;;;;5010821;28;20108;-46
2021/10/07 01:40:58;;;;;;;0.80;0.47;;;;;;;;;;5010043;28;20026;-46
2021/10/07 01:43:24;;;;;;;0.60;0.40;;;;;;;;;;5010253;28;20533;-46
2021/10/07 01:45:51;;;;;;;0.60;0.40;;;;;;;;;;5009591;28;20398;-46
2021/10/07 01:48:17;;;;;;;1.10;0.60;;;;;;;;;;5010597;28;20034;-46
2021/10/07 01:50:43;;;;;;;1.40;0.60;;;;;;;;;;5010816;28;20050;-53
2021/10/07 01:53:09;;;;;;;1.40;0.60;;;;;;;;;;5010118;28;20033;-46
2021/10/07 01:55:35;;;;;;;0.70;0.45;;;;;;;;;;5010633;28;20033;-46
2021/10/07 01:58:01;;;;;;;1.25;0.60;;;;;;;;;;5009871;28;20026;-46
2021/10/07 02:00:27;;;;;;;1.30;0.50;;;;;;;;;;5010624;28;20025;-46
2021/10/07 02:02:53;;;;;;;0.68;0.40;;;;;;;;;;5010270;28;20022;-46
2021/10/07 02:05:19;;;;;;;0.73;0.45;;;;;;;;;;5011757;28;20471;-46
2021/10/07 02:07:45;;;;;;;1.42;0.40;;;;;;;;;;5010859;28;20391;-52
2021/10/07 02:10:14;;;;;;;3.00;0.50;;;;;;;;;;5011379;28;20034;-46
2021/10/07 02:12:42;;;;;;;0.63;0.60;;;;;;;;;;5011850;28;20030;-46
2021/10/07 02:15:08;;;;;;;0.98;0.50;;;;;;;;;;5010628;28;20053;-46
2021/10/07 02:17:34;;;;;;;0.65;0.40;;;;;;;;;;5011736;28;20535;-46
2021/10/07 02:20:00;;;;;;;0.73;0.57;;;;;;;;;;5010938;28;20030;-46
2021/10/07 02:22:26;;;;;;;0.98;0.50;;;;;;;;;;5011688;28;20061;-47
2021/10/07 02:24:52;;;;;;;0.40;0.40;;;;;;;;;;5010709;28;20057;-46
2021/10/07 02:27:18;;;;;;;1.25;0.50;;;;;;;;;;5011720;28;20076;-46
2021/10/07 02:29:44;;;;;;;2.28;0.52;;;;;;;;;;5011319;28;20034;-53
2021/10/07 02:32:10;;;;;;;1.05;0.50;;;;;;;;;;5011217;28;20022;-46
2021/10/07 02:34:36;;;;;;;1.40;0.60;;;;;;;;;;5011688;28;20041;-46
2021/10/07 02:37:02;;;;;;;2.20;0.60;;;;;;;;;;5010632;28;20480;-46
2021/10/07 02:39:28;;;;;;;1.15;0.60;;;;;;;;;;5011438;28;20037;-46
2021/10/07 02:41:54;;;;;;;0.70;0.40;;;;;;;;;;5011092;28;20029;-46
2021/10/07 02:44:20;;;;;;;0.77;0.43;;;;;;;;;;5011653;28;20101;-46
2021/10/07 02:46:46;;;;;;;2.08;0.50;;;;;;;;;;5010487;28;20110;-53
2021/10/07 02:49:12;;;;;;;0.73;0.40;;;;;;;;;;5011377;28;20025;-46
2021/10/07 02:51:38;;;;;;;1.58;0.40;;;;;;;;;;5011422;28;20104;-46
2021/10/07 02:54:04;;;;;;;1.00;0.40;;;;;;;;;;5010541;28;20106;-46
2021/10/07 02:56:30;;;;;;;1.27;0.70;;;;;;;;;;5011703;28;20360;-46
2021/10/07 02:58:56;;;;;;;0.60;0.45;;;;;;;;;;5009842;28;20034;-46
2021/10/07 03:01:25;;;;;;;1.50;0.50;;;;;;;;;;5011699;28;20029;-49
2021/10/07 03:03:51;;;;;;;0.50;0.40;;;;;;;;;;5010362;28;20093;-46
2021/10/07 03:06:18;;;;;;;0.60;0.40;;;;;;;;;;5014085;28;20053;-46
2021/10/07 03:08:44;;;;;;;0.50;0.30;;;;;;;;;;5015038;28;20370;-46
2021/10/07 03:11:10;;;;;;;1.23;0.88;;;;;;;;;;5014201;28;20026;-46
2021/10/07 03:13:36;;;;;;;1.20;0.50;;;;;;;;;;5014904;28;20026;-46
2021/10/07 03:16:02;;;;;;;0.75;0.40;;;;;;;;;;5014255;28;20033;-46
2021/10/07 03:18:28;;;;;;;2.70;1.40;;;;;;;;;;5014662;28;20036;-46
2021/10/07 03:20:54;;;;;;;1.38;0.68;;;;;;;;;;5014081;28;20026;-48
2021/10/07 03:23:20;;;;;;;0.55;0.35;;;;;;;;;;5014725;28;20467;-47
2021/10/07 03:25:46;;;;;;;0.35;0.32;;;;;;;;;;5014302;28;20034;-54
2021/10/07 03:28:12;;;;;;;1.10;0.50;;;;;;;;;;5013150;28;20068;-47
2021/10/07 03:30:38;;;;;;;0.80;0.40;;;;;;;;;;5014705;28;20116;-47
2021/10/07 03:33:05;;;;;;;1.17;0.40;;;;;;;;;;5013825;28;20386;-47
2021/10/07 03:35:31;;;;;;;1.15;0.50;;;;;;;;;;5014547;28;20061;-47
2021/10/07 03:37:59;;;;;;;0.88;0.50;;;;;;;;;;5013676;28;20026;-47
2021/10/07 03:40:25;;;;;;;1.20;0.73;;;;;;;;;;5014340;28;20113;-48
2021/10/07 03:42:51;;;;;;;1.08;0.47;;;;;;;;;;5013672;28;20108;-47
2021/10/07 03:45:17;;;;;;;1.75;0.40;;;;;;;;;;5014526;28;20022;-47
2021/10/07 03:47:43;;;;;;;1.85;0.50;;;;;;;;;;5014185;28;20112;-48
2021/10/07 03:50:09;;;;;;;0.60;0.52;;;;;;;;;;5013379;28;20102;-47
2021/10/07 03:52:35;;;;;;;1.70;0.50;;;;;;;;;;5014271;28;20097;-47
2021/10/07 03:55:01;;;;;;;0.57;0.40;;;;;;;;;;5013143;28;20550;-47
2021/10/07 03:57:29;;;;;;;1.05;0.57;;;;;;;;;;5014138;28;20037;-46
2021/10/07 03:59:55;;;;;;;1.05;0.50;;;;;;;;;;5013158;28;20436;-46
2021/10/07 04:02:21;;;;;;;0.90;0.50;;;;;;;;;;5014126;28;20396;-46
2021/10/07 04:04:47;;;;;;;0.73;0.50;;;;;;;;;;5013817;28;20026;-52
2021/10/07 04:07:13;;;;;;;0.50;0.40;;;;;;;;;;5013214;28;20153;-49
2021/10/07 04:09:39;;;;;;;1.05;0.60;;;;;;;;;;5013214;28;20088;-45
2021/10/07 04:12:05;;;;;;;1.00;0.57;;;;;;;;;;5013192;28;20030;-46
2021/10/07 04:14:31;;;;;;;0.57;0.52;;;;;;;;;;5013316;28;20049;-46
2021/10/07 04:16:57;;;;;;;1.30;0.70;;;;;;;;;;5011936;28;20510;-46
2021/10/07 04:19:23;;;;;;;0.57;0.40;;;;;;;;;;5008870;28;20021;-47
2021/10/07 04:21:49;;;;;;;0.75;0.40;;;;;;;;;;5012995;28;20096;-52
2021/10/07 04:24:16;;;;;;;1.15;0.40;;;;;;;;;;5013219;28;20025;-47
2021/10/07 04:26:42;;;;;;;0.55;0.40;;;;;;;;;;5013153;28;20022;-46
2021/10/07 04:29:08;;;;;;;0.60;0.38;;;;;;;;;;5012722;28;20610;-46
2021/10/07 04:31:34;;;;;;;1.73;0.50;;;;;;;;;;5014110;28;20029;-46
2021/10/07 04:34:00;;;;;;;0.93;0.60;;;;;;;;;;5012606;28;20104;-46
2021/10/07 04:36:27;;;;;;;1.27;0.43;;;;;;;;;;5013042;28;20042;-46
2021/10/07 04:38:54;;;;;;;0.80;0.50;;;;;;;;;;5012400;28;20030;-46
2021/10/07 04:41:20;;;;;;;0.80;0.40;;;;;;;;;;5012875;28;20026;-46
2021/10/07 04:43:47;;;;;;;0.60;0.47;;;;;;;;;;5012932;28;20028;-46
2021/10/07 04:46:18;;;;;;;0.52;0.30;;;;;;;;;;5012495;28;20041;-48
2021/10/07 04:48:45;;;;;;;0.70;0.40;;;;;;;;;;5012980;28;20018;-46
2021/10/07 04:51:12;;;;;;;1.83;0.45;;;;;;;;;;5012107;28;20111;-46
2021/10/07 04:53:38;;;;;;;0.63;0.40;;;;;;;;;;5012577;28;20033;-46
2021/10/07 04:56:05;;;;;;;0.40;0.40;;;;;;;;;;5011937;28;20088;-46
2021/10/07 04:58:32;;;;;;;0.57;0.40;;;;;;;;;;5013010;28;20041;-47
2021/10/07 05:00:59;;;;;;;0.75;0.50;;;;;;;;;;5011174;28;20022;-52
2021/10/07 05:03:25;;;;;;;0.90;0.60;;;;;;;;;;5012304;28;20117;-47
2021/10/07 05:05:52;;;;;;;0.70;0.40;;;;;;;;;;5011932;28;20081;-52
2021/10/07 05:08:19;;;;;;;1.50;0.60;;;;;;;;;;5012610;28;20034;-47
2021/10/07 05:10:46;;;;;;;0.68;0.50;;;;;;;;;;5011896;28;20410;-46
2021/10/07 05:13:14;;;;;;;1.23;0.45;;;;;;;;;;5010710;28;20046;-47
2021/10/07 05:15:41;;;;;;;1.05;0.35;;;;;;;;;;5011366;28;20042;-49
2021/10/07 05:18:07;;;;;;;2.35;0.50;;;;;;;;;;5011377;28;20026;-46
2021/10/07 05:20:34;;;;;;;0.82;0.38;;;;;;;;;;5012179;28;20483;-49
2021/10/07 05:23:01;;;;;;;1.65;0.45;;;;;;;;;;5011745;28;20502;-45
2021/10/07 05:25:28;;;;;;;1.55;0.38;;;;;;;;;;5012547;28;20450;-47
2021/10/07 05:27:54;;;;;;;3.40;0.50;;;;;;;;;;5011059;28;20431;-46
2021/10/07 05:30:21;;;;;;;1.10;0.60;;;;;;;;;;5012579;28;20089;-47
2021/10/07 05:32:48;;;;;;;3.28;0.80;;;;;;;;;;5012505;28;20026;-46
2021/10/07 05:35:14;;;;;;;4.20;0.70;;;;;;;;;;5011379;28;20537;-48
2021/10/07 05:37:41;;;;;;;1.75;0.40;;;;;;;;;;5012794;28;20034;-47
2021/10/07 05:40:08;;;;;;;4.75;0.57;;;;;;;;;;5011596;28;20100;-45
2021/10/07 05:42:35;;;;;;;4.55;0.73;;;;;;;;;;5011421;28;20439;-49
2021/10/07 05:45:02;;;;;;;3.13;0.70;;;;;;;;;;5009166;28;20022;-47
2021/10/07 05:47:29;;;;;;;5.72;0.80;;;;;;;;;;5010695;28;20108;-51
2021/10/07 05:49:56;;;;;;;3.10;0.60;;;;;;;;;;5009515;28;20022;-46
2021/10/07 05:52:23;;;;;;;6.80;0.88;;;;;;;;;;5009119;28;20460;-45
2021/10/07 05:54:49;;;;;;;5.38;0.98;;;;;;;;;;5010444;28;20038;-45
2021/10/07 05:57:17;;;;;;;6.45;1.10;;;;;;;;;;5010732;28;20026;-45
2021/10/07 05:59:43;;;;;;;5.88;1.20;;;;;;;;;;5011749;28;20114;-45
2021/10/07 06:02:10;;;;;;;8.60;2.03;;;;;;;;;;5010974;28;20018;-45
2021/10/07 06:04:37;;;;;;;8.00;1.02;;;;;;;;;;5011628;28;20124;-45
2021/10/07 06:07:04;;;;;;;9.60;1.38;;;;;;;;;;5011025;28;20049;-46
2021/10/07 06:09:30;;;;;;;6.65;1.55;;;;;;;;;;5011575;28;20037;-45
2021/10/07 06:11:57;;;;;;;8.30;1.05;;;;;;;;;;5010753;28;20042;-45
2021/10/07 06:14:24;;;;;;;8.30;1.00;;;;;;;;;;5011385;28;20022;-46
2021/10/07 06:16:55;;;;;;;5.82;1.10;;;;;;;;;;5011553;28;20353;-45
2021/10/07 06:19:23;;;;;;;22.70;2.40;;;;;;;;;;5005318;28;20014;-46
2021/10/07 06:21:50;;;;;;;7.25;1.30;;;;;;;;;;4992336;28;20364;-45
2021/10/07 06:24:17;;;;;;;9.50;1.02;;;;;;;;;;4991990;28;20110;-46
2021/10/07 06:26:44;;;;;;;5.30;0.70;;;;;;;;;;4992020;28;20081;-48
2021/10/07 06:29:11;;;;;;;2.92;0.80;;;;;;;;;;4991492;28;20026;-46
2021/10/07 06:31:38;;;;;;;10.25;1.40;;;;;;;;;;4992317;28;20026;-45
2021/10/07 06:34:05;;;;;;;2.90;1.02;;;;;;;;;;4991443;28;20111;-48
2021/10/07 06:36:32;;;;;;;6.60;0.90;;;;;;;;;;4992188;28;20042;-45
2021/10/07 06:38:59;;;;;;;2.92;0.90;;;;;;;;;;4991516;28;20030;-45
2021/10/07 06:41:25;;;;;;;5.07;1.17;;;;;;;;;;4995348;28;20026;-45
2021/10/07 06:43:52;;;;;;;3.53;0.80;;;;;;;;;;4996280;28;20026;-49
2021/10/07 06:46:18;;;;;;;3.75;0.80;;;;;;;;;;4994900;28;20030;-49
2021/10/07 06:48:45;;;;;;;3.63;0.95;;;;;;;;;;4995952;28;20439;-45
2021/10/07 06:51:14;;;;;;;3.85;0.75;;;;;;;;;;4994964;28;20380;-45
2021/10/07 06:53:41;;;;;;;6.32;0.88;;;;;;;;;;4995822;28;20027;-49
2021/10/07 06:56:08;;;;;;;4.30;1.02;;;;;;;;;;4994789;28;20031;-48
2021/10/07 06:58:35;;;;;;;5.68;0.70;;;;;;;;;;4995792;28;20025;-50
2021/10/07 07:01:01;;;;;;;5.32;0.95;;;;;;;;;;4994983;28;20030;-48
2021/10/07 07:03:28;;;;;;;3.17;0.70;;;;;;;;;;4995883;28;20029;-46
2021/10/07 07:05:54;;;;;;;3.08;0.80;;;;;;;;;;4994889;28;20054;-52
2021/10/07 07:08:21;;;;;;;4.10;0.80;;;;;;;;;;4995050;28;20050;-49
2021/10/07 07:10:47;;;;;;;2.50;0.70;;;;;;;;;;4995530;28;20109;-48
2021/10/07 07:13:16;;;;;;;2.45;0.82;;;;;;;;;;4994453;28;20026;-45
2021/10/07 07:15:42;;;;;;;5.50;0.98;;;;;;;;;;4995059;28;20064;-46
2021/10/07 07:18:09;;;;;;;3.28;0.68;;;;;;;;;;4994272;28;20019;-45
2021/10/07 07:20:35;;;;;;;4.50;0.80;;;;;;;;;;5011929;28;20022;-45
2021/10/07 07:23:02;;;;;;;2.25;0.77;;;;;;;;;;5014162;28;20037;-47
2021/10/07 07:25:28;;;;;;;4.75;0.80;;;;;;;;;;5014704;28;20364;-47
2021/10/07 07:27:55;;;;;;;2.28;0.80;;;;;;;;;;5014491;28;20026;-50
2021/10/07 07:30:21;;;;;;;2.65;1.00;;;;;;;;;;5013886;28;20022;-47
2021/10/07 07:32:47;;;;;;;2.97;0.75;;;;;;;;;;5014573;28;20026;-46
2021/10/07 07:35:14;;;;;;;5.45;1.25;;;;;;;;;;5013937;28;20829;-52
2021/10/07 07:37:40;;;;;;;1.48;0.70;;;;;;;;;;5014826;28;20022;-45
2021/10/07 07:40:07;;;;;;;2.28;1.08;;;;;;;;;;5013766;28;20041;-46
2021/10/07 07:42:34;;;;;;;2.17;0.85;;;;;;;;;;5014440;28;20030;-44
2021/10/07 07:45:00;;;;;;;1.85;0.80;;;;;;;;;;5013512;28;20026;-45
2021/10/07 07:47:27;;;;;;;4.57;0.90;;;;;;;;;;5014232;28;20037;-45
2021/10/07 07:49:53;;;;;;;1.58;0.82;;;;;;;;;;5014662;28;20033;-45
2021/10/07 07:52:22;;;;;;;3.13;0.85;;;;;;;;;;5013173;28;20080;-45
2021/10/07 07:54:49;;;;;;;1.83;0.90;;;;;;;;;;5014233;28;20069;-45
2021/10/07 07:57:15;;;;;;;3.05;0.90;;;;;;;;;;5013324;28;20034;-45
2021/10/07 07:59:42;;;;;;;2.83;0.70;;;;;;;;;;5014240;28;20424;-45
2021/10/07 08:02:08;;;;;;;5.47;1.10;;;;;;;;;;5013074;28;20084;-45
2021/10/07 08:04:35;;;;;;;2.63;1.00;;;;;;;;;;5014115;28;20036;-45
2021/10/07 08:07:01;;;;;;;2.65;0.93;;;;;;;;;;5012809;28;20042;-45
2021/10/07 08:09:28;;;;;;;2.75;1.27;;;;;;;;;;5013895;28;20121;-44
2021/10/07 08:11:54;;;;;;;2.65;0.95;;;;;;;;;;5013864;28;20033;-45
2021/10/07 08:14:21;;;;;;;4.68;1.00;;;;;;;;;;5013194;28;20026;-45
2021/10/07 08:16:47;;;;;;;5.68;1.13;;;;;;;;;;5013635;28;20033;-45
2021/10/07 08:19:14;;;;;;;5.18;1.15;;;;;;;;;;5013244;28;20045;-45
2021/10/07 08:21:41;;;;;;;3.85;1.02;;;;;;;;;;5013671;28;20033;-45
2021/10/07 08:24:10;;;;;;;1.15;0.88;;;;;;;;;;5012896;28;20022;-45
2021/10/07 08:26:37;;;;;;;2.53;1.05;;;;;;;;;;5013448;28;20517;-45
2021/10/07 08:29:03;;;;;;;1.83;1.17;;;;;;;;;;5012852;28;20021;-45
2021/10/07 08:31:30;;;;;;;2.10;1.05;;;;;;;;;;5013588;28;20092;-45
2021/10/07 08:33:56;;;;;;;1.30;0.93;;;;;;;;;;5012918;28;20475;-47
2021/10/07 08:36:23;;;;;;;2.10;1.00;;;;;;;;;;5013172;28;20049;-45
2021/10/07 08:38:49;;;;;;;2.47;1.75;;;;;;;;;;5013208;28;20533;-45
2021/10/07 08:41:16;;;;;;;2.97;1.00;;;;;;;;;;5012882;28;20105;-47
2021/10/07 08:43:43;;;;;;;2.55;0.90;;;;;;;;;;5013451;28;20367;-47
2021/10/07 08:46:11;;;;;;;2.22;1.00;;;;;;;;;;5012611;28;20486;-45
2021/10/07 08:48:37;;;;;;;2.75;1.15;;;;;;;;;;5013233;28;20096;-45
2021/10/07 08:51:04;;;;;;;3.08;1.00;;;;;;;;;;5012206;28;20049;-45
2021/10/07 08:53:30;;;;;;;4.25;1.23;;;;;;;;;;5013154;28;20088;-45
2021/10/07 08:55:57;;;;;;;2.33;1.23;;;;;;;;;;5012624;28;20049;-48
2021/10/07 08:58:23;;;;;;;1.67;1.10;;;;;;;;;;5012623;28;20033;-45
2021/10/07 09:00:49;;;;;;;2.45;1.27;;;;;;;;;;5013249;28;20022;-45
2021/10/07 09:03:20;;;;;;;2.55;1.02;;;;;;;;;;5011114;28;20037;-45
2021/10/07 09:05:47;;;;;;;2.47;1.27;;;;;;;;;;5012565;28;20026;-45
2021/10/07 09:08:15;;;;;;;2.72;1.30;;;;;;;;;;5012128;28;20030;-48
2021/10/07 09:10:43;;;;;;;4.85;1.90;;;;;;;;;;5012869;28;20050;-50
2021/10/07 09:13:21;;;;;;;2.42;1.38;;;;;;;;;;5012055;28;20021;-45
2021/10/07 09:15:48;;;;;;;2.90;1.20;;;;;;;;;;5012739;28;20030;-47
2021/10/07 09:18:16;;;;;;;2.97;1.67;;;;;;;;;;5012007;28;20030;-45
2021/10/07 09:20:46;;;;;;;1.33;1.08;;;;;;;;;;5012625;28;20030;-46
2021/10/07 09:23:17;;;;;;;2.15;1.40;;;;;;;;;;5011965;28;20467;-45
2021/10/07 09:25:59;;;;;;;5.68;1.60;;;;;;;;;;5012760;28;20049;-45
2021/10/07 09:28:28;;;;;;;3.60;1.75;;;;;;;;;;5012156;28;20048;-45
2021/10/07 09:30:55;;;;;;;1.90;1.27;;;;;;;;;;5012742;28;20044;-46
2021/10/07 09:33:40;;;;;;;2.05;1.38;;;;;;;;;;5011627;28;20493;-45
2021/10/07 09:36:15;;;;;;;2.97;1.40;;;;;;;;;;5011699;28;20052;-45
2021/10/07 09:38:41;;;;;;;2.22;1.20;;;;;;;;;;5012400;28;20437;-45
2021/10/07 09:41:12;;;;;;;3.88;1.17;;;;;;;;;;5011706;28;20109;-48
2021/10/07 09:43:45;;;;;;;3.03;1.30;;;;;;;;;;5012380;28;20018;-49
2021/10/07 09:46:11;;;;;;;3.55;1.52;;;;;;;;;;5011691;28;20045;-45
2021/10/07 09:48:39;;;;;;;4.03;2.33;;;;;;;;;;5011833;28;20467;-45
2021/10/07 09:51:12;;;;;;;4.30;1.40;;;;;;;;;;5011462;28;20034;-49
2021/10/07 09:53:43;;;;;;;3.03;1.55;;;;;;;;;;5012468;28;20487;-47
2021/10/07 09:56:23;;;;;;;4.35;1.50;;;;;;;;;;5011491;28;20041;-48
2021/10/07 09:58:49;;;;;;;2.45;1.48;;;;;;;;;;5012181;28;20025;-45
2021/10/07 10:01:16;;;;;;;3.55;1.67;;;;;;;;;;5011499;28;20084;-45
2021/10/07 10:03:43;;;;;;;5.22;1.60;;;;;;;;;;5012059;28;20383;-45
2021/10/07 10:06:09;;;;;;;4.05;1.90;;;;;;;;;;5011260;28;20129;-45
2021/10/07 10:08:36;;;;;;;1.60;1.40;;;;;;;;;;5012131;28;20489;-45
2021/10/07 10:11:02;;;;;;;3.50;1.60;;;;;;;;;;5011339;28;20439;-54
2021/10/07 10:13:29;;;;;;;4.45;1.70;;;;;;;;;;5012218;28;20026;-45
2021/10/07 10:15:56;;;;;;;3.25;1.48;;;;;;;;;;5016110;28;20065;-48
2021/10/07 10:18:22;;;;;;;3.95;1.70;;;;;;;;;;5015072;28;20018;-46
2021/10/07 10:20:52;;;;;;;3.40;1.58;;;;;;;;;;5016149;28;20442;-50
2021/10/07 10:23:31;;;;;;;2.88;1.77;;;;;;;;;;5015340;28;20213;-49
2021/10/07 10:25:59;;;;;;;2.95;1.50;;;;;;;;;;5016306;28;20025;-48
2021/10/07 10:28:29;;;;;;;3.80;1.38;;;;;;;;;;5015359;28;20056;-47
2021/10/07 10:31:02;;;;;;;2.30;1.65;;;;;;;;;;5015787;28;20028;-48
2021/10/07 10:33:30;;;;;;;1.80;1.30;;;;;;;;;;5016043;28;20124;-47
2021/10/07 10:35:56;;;;;;;2.67;1.45;;;;;;;;;;5015407;28;20029;-45
2021/10/07 10:38:23;;;;;;;3.85;1.73;;;;;;;;;;5015025;28;20026;-46
2021/10/07 10:40:50;;;;;;;2.38;1.70;;;;;;;;;;5015273;28;20364;-47
2021/10/07 10:43:22;;;;;;;3.83;1.55;;;;;;;;;;5014954;28;20014;-50
2021/10/07 10:45:52;;;;;;;2.15;1.80;;;;;;;;;;5015187;28;20058;-52
2021/10/07 10:48:37;;;;;;;2.85;1.73;;;;;;;;;;5014903;28;20025;-51
2021/10/07 10:51:03;;;;;;;3.00;1.95;;;;;;;;;;5015032;28;20084;-51
2021/10/07 10:53:29;;;;;;;1.88;1.48;;;;;;;;;;5015265;28;20022;-49
2021/10/07 10:55:56;;;;;;;2.92;1.73;;;;;;;;;;5015627;28;20018;-48
2021/10/07 10:58:22;;;;;;;2.58;1.80;;;;;;;;;;5014544;28;20049;-45
2021/10/07 11:00:49;;;;;;;2.55;1.65;;;;;;;;;;5015578;28;20037;-45
2021/10/07 11:03:15;;;;;;;5.18;2.08;;;;;;;;;;5014566;28;20022;-45
2021/10/07 11:06:00;;;;;;;2.47;1.50;;;;;;;;;;5014618;28;20030;-45
2021/10/07 11:08:27;;;;;;;2.00;1.50;;;;;;;;;;5014550;28;20034;-45
2021/10/07 11:10:54;;;;;;;2.97;1.95;;;;;;;;;;5015072;28;20112;-45
2021/10/07 11:13:25;;;;;;;2.60;1.75;;;;;;;;;;5014144;28;20820;-44
2021/10/07 11:15:57;;;;;;;1.93;1.50;;;;;;;;;;5015058;28;20065;-45
2021/10/07 11:18:26;;;;;;;;;;;;;;;;;;5014653;28;20849;-45
2021/10/07 11:20:56;;;;;;;1.75;1.65;;;;;;;;;;5014716;28;19912;-45
2021/10/07 11:23:23;;;;;;;2.95;1.77;;;;;;;;;;5014110;28;20025;-46
2021/10/07 11:25:51;;;;;;;3.30;1.85;;;;;;;;;;5014102;28;20116;-45
2021/10/07 11:28:18;;;;;;;2.70;1.60;;;;;;;;;;5013899;28;20073;-44
2021/10/07 11:30:45;;;;;;;2.75;1.55;;;;;;;;;;5013506;28;20402;-45
2021/10/07 11:33:13;;;;;;;2.42;1.75;;;;;;;;;;5014057;28;20113;-45
2021/10/07 11:35:39;;;;;;;2.80;2.05;;;;;;;;;;5014520;28;20483;-45
2021/10/07 11:38:07;;;;;;;1.90;1.50;;;;;;;;;;5014054;28;20090;-45
2021/10/07 11:40:33;;;;;;;3.65;1.50;;;;;;;;;;5014559;28;20018;-45
2021/10/07 11:43:02;;;;;;;2.22;1.58;;;;;;;;;;5014521;28;20375;-45
2021/10/07 11:45:30;;;;;;;1.45;1.35;;;;;;;;;;5014059;28;20018;-45
2021/10/07 11:47:59;;;;;;;1.83;1.33;;;;;;;;;;5014384;28;20112;-45
2021/10/07 11:50:25;;;;;;;3.83;1.40;;;;;;;;;;5013530;28;20061;-46
2021/10/07 11:52:54;;;;;;;2.20;1.92;;;;;;;;;;5014144;28;20018;-45
2021/10/07 11:55:22;;;;;;;1.30;1.17;;;;;;;;;;5013491;28;20026;-45
2021/10/07 11:57:49;;;;;;;2.90;1.60;;;;;;;;;;5014153;28;20034;-45
2021/10/07 12:00:32;;;;;;;2.70;1.45;;;;;;;;;;5013279;28;20060;-45
2021/10/07 12:03:07;;;;;;;2.80;1.92;;;;;;;;;;5014399;28;20038;-45
2021/10/07 12:05:34;;;;;;;2.45;1.40;;;;;;;;;;5013703;28;20057;-45
2021/10/07 12:08:07;;;;;;;1.75;1.40;;;;;;;;;;5013990;28;20030;-46
2021/10/07 12:10:39;;;;;;;2.35;1.42;;;;;;;;;;5014045;28;20106;-45
2021/10/07 12:13:14;;;;;;;2.33;1.20;;;;;;;;;;5013523;28;20025;-48
2021/10/07 12:15:44;;;;;;;1.48;1.23;;;;;;;;;;5014076;28;20061;-46
2021/10/07 12:18:11;;;;;;;2.50;1.42;;;;;;;;;;5013297;28;20034;-45
2021/10/07 12:20:37;;;;;;;1.58;1.27;;;;;;;;;;5013670;28;20025;-44
2021/10/07 12:23:07;;;;;;;2.33;1.40;;;;;;;;;;5013301;28;20463;-49
2021/10/07 12:25:41;;;;;;;1.65;1.25;;;;;;;;;;5013733;28;20121;-44
2021/10/07 12:28:13;;;;;;;1.40;1.13;;;;;;;;;;5012831;28;20034;-45
2021/10/07 12:30:39;;;;;;;;;;;;;;;;;;5013754;28;20467;-48
2021/10/07 12:33:09;;;;;;;2.05;1.30;;;;;;;;;;5012963;28;19975;-50
2021/10/07 12:35:36;;;;;;;1.73;1.10;;;;;;;;;;5013765;28;20029;-50
2021/10/07 12:38:02;;;;;;;1.75;1.27;;;;;;;;;;5012425;28;20040;-44
2021/10/07 12:40:29;;;;;;;0.95;0.90;;;;;;;;;;5011653;28;20367;-45
2021/10/07 12:42:56;;;;;;;2.05;1.30;;;;;;;;;;5013378;28;20018;-49
2021/10/07 12:45:22;;;;;;;1.55;1.10;;;;;;;;;;5012611;28;20026;-44
2021/10/07 12:48:01;;;;;;;2.47;1.50;;;;;;;;;;5013046;28;20029;-46
2021/10/07 12:50:36;;;;;;;1.80;1.10;;;;;;;;;;5012321;28;20037;-47
2021/10/07 12:53:02;;;;;;;1.75;1.50;;;;;;;;;;5012055;28;20057;-46
2021/10/07 12:55:29;;;;;;;1.80;1.45;;;;;;;;;;5012350;28;20088;-47
2021/10/07 12:57:59;;;;;;;1.52;1.35;;;;;;;;;;5013321;28;20030;-50
2021/10/07 13:00:27;;;;;;;2.65;1.40;;;;;;;;;;5012333;28;20178;-46
2021/10/07 13:02:55;;;;;;;1.50;1.10;;;;;;;;;;5012990;28;20049;-47
2021/10/07 13:05:26;;;;;;;1.55;1.10;;;;;;;;;;5012265;28;20022;-45
2021/10/07 13:07:56;;;;;;;1.23;1.00;;;;;;;;;;5012858;28;20057;-45
2021/10/07 13:10:22;;;;;;;1.85;1.40;;;;;;;;;;5012208;28;20018;-47
2021/10/07 13:12:49;;;;;;;1.92;1.25;;;;;;;;;;5012694;28;20056;-45
2021/10/07 13:15:15;;;;;;;2.20;1.30;;;;;;;;;;5012298;28;20030;-45
2021/10/07 13:17:44;;;;;;;1.95;1.00;;;;;;;;;;5012740;28;20037;-45
2021/10/07 13:20:11;;;;;;;1.75;1.00;;;;;;;;;;5011907;28;20352;-46
2021/10/07 13:22:37;;;;;;;1.83;1.08;;;;;;;;;;5012594;28;20022;-46
2021/10/07 13:25:05;;;;;;;2.20;1.17;;;;;;;;;;5012799;28;20041;-51
2021/10/07 13:27:32;;;;;;;1.80;1.20;;;;;;;;;;5011042;28;20030;-49
2021/10/07 13:29:58;;;;;;;1.95;1.10;;;;;;;;;;5012568;28;20026;-49
2021/10/07 13:32:25;;;;;;;3.35;1.10;;;;;;;;;;5011985;28;20026;-45
2021/10/07 13:34:51;;;;;;;1.08;0.90;;;;;;;;;;5012590;28;20025;-49
2021/10/07 13:37:20;;;;;;;5.28;1.40;;;;;;;;;;5011369;28;20041;-48
2021/10/07 13:39:47;;;;;;;2.90;1.35;;;;;;;;;;5012339;28;20120;-44
2021/10/07 13:42:13;;;;;;;1.10;0.95;;;;;;;;;;5011667;28;20025;-48
2021/10/07 13:44:40;;;;;;;2.97;1.10;;;;;;;;;;5012119;28;20030;-45
2021/10/07 13:47:06;;;;;;;1.10;0.95;;;;;;;;;;5012152;28;20467;-47
2021/10/07 13:49:32;;;;;;;1.00;0.90;;;;;;;;;;5012165;28;20030;-48
2021/10/07 13:51:59;;;;;;;3.65;1.27;;;;;;;;;;5012464;28;20055;-47
2021/10/07 13:54:25;;;;;;;6.00;1.73;;;;;;;;;;5010937;28;20022;-52
2021/10/07 13:56:52;;;;;;;4.00;1.40;;;;;;;;;;5009897;28;20049;-47
2021/10/07 13:59:18;;;;;;;3.38;1.27;;;;;;;;;;5010107;28;20466;-46
2021/10/07 14:01:44;;;;;;;2.97;1.05;;;;;;;;;;5011093;28;20037;-47
2021/10/07 14:04:11;;;;;;;6.65;1.65;;;;;;;;;;5011170;28;20033;-49
2021/10/07 14:06:37;;;;;;;6.68;1.30;;;;;;;;;;5011768;28;20049;-51
2021/10/07 14:09:03;;;;;;;2.00;0.80;;;;;;;;;;5011854;28;20471;-46
2021/10/07 14:11:30;;;;;;;2.75;1.10;;;;;;;;;;5011422;28;20023;-45
2021/10/07 14:13:57;;;;;;;3.38;1.08;;;;;;;;;;5012160;28;20156;-49
2021/10/07 14:16:23;;;;;;;2.35;1.00;;;;;;;;;;5011605;28;20021;-47
2021/10/07 14:18:50;;;;;;;4.22;0.98;;;;;;;;;;5011510;28;20475;-44
2021/10/07 14:21:16;;;;;;;6.80;1.02;;;;;;;;;;5011453;28;20098;-45
2021/10/07 14:23:47;;;;;;;1.45;1.00;;;;;;;;;;5012124;28;20101;-47
2021/10/07 14:26:13;;;;;;;4.07;0.90;;;;;;;;;;5011251;28;20038;-45
2021/10/07 14:28:40;;;;;;;3.03;1.10;;;;;;;;;;5011858;28;20030;-45
2021/10/07 14:31:06;;;;;;;1.33;0.85;;;;;;;;;;5012032;28;20022;-45
2021/10/07 14:33:33;;;;;;;3.85;1.30;;;;;;;;;;5011447;28;20467;-45
2021/10/07 14:35:59;;;;;;;2.40;0.90;;;;;;;;;;5012070;28;20060;-44
2021/10/07 14:38:26;;;;;;;1.35;0.80;;;;;;;;;;5011071;28;20049;-47
2021/10/07 14:40:53;;;;;;;1.30;0.77;;;;;;;;;;5011629;28;20550;-44
2021/10/07 14:43:19;;;;;;;1.50;0.80;;;;;;;;;;5011276;28;20033;-44
2021/10/07 14:45:46;;;;;;;2.85;1.00;;;;;;;;;;5011568;28;20471;-44
2021/10/07 14:48:12;;;;;;;1.40;0.98;;;;;;;;;;5010912;28;20364;-45